createdAt,value
2019-03-09T00:00:59.693Z,16.67
2019-03-09T00:03:28.110Z,22.32
2019-03-09T00:05:56.650Z,16.90
2019-03-09T00:08:25.114Z,22.25
2019-03-09T00:10:53.751Z,21.77
2019-03-09T00:13:22.300Z,14.85
2019-03-09T00:15:51.203Z,22.62
2019-03-09T00:18:19.796Z,18.30
2019-03-09T00:20:48.237Z,23.02
2019-03-09T00:23:21.119Z,24.87
2019-03-09T00:26:07.433Z,22.75
2019-03-09T00:28:40.443Z,20.77
2019-03-09T00:31:26.658Z,19.98
2019-03-09T00:33:55.138Z,23.98
2019-03-09T00:36:23.570Z,20.35
2019-03-09T00:38:52.008Z,18.30
2019-03-09T00:41:20.585Z,23.02
2019-03-09T00:43:49.019Z,21.40
2019-03-09T00:46:17.470Z,21.17
2019-03-09T00:48:45.945Z,23.35
2019-03-09T00:51:14.702Z,20.12
2019-03-09T00:53:43.178Z,26.30
2019-03-09T00:56:12.106Z,21.60
2019-03-09T00:58:40.617Z,19.87
2019-03-09T01:01:09.068Z,21.00
2019-03-09T01:03:37.609Z,19.60
2019-03-09T01:06:06.212Z,21.57
2019-03-09T01:08:34.934Z,22.42
2019-03-09T01:11:03.674Z,21.73
2019-03-09T01:13:32.153Z,21.48
2019-03-09T01:16:00.709Z,19.82
2019-03-09T01:18:29.205Z,25.17
2019-03-09T01:20:57.693Z,23.40
2019-03-09T01:23:28.570Z,19.92
2019-03-09T01:25:57.478Z,20.32
2019-03-09T01:28:25.948Z,18.57
2019-03-09T01:30:54.425Z,18.50
2019-03-09T01:33:22.879Z,21.07
2019-03-09T01:38:14.004Z,19.92
2019-03-09T01:40:42.660Z,17.20
2019-03-09T01:43:11.093Z,17.57
2019-03-09T01:45:39.679Z,16.20
2019-03-09T01:48:08.133Z,15.98
2019-03-09T01:50:36.747Z,15.18
2019-03-09T01:53:05.503Z,16.17
2019-03-09T01:55:33.930Z,14.15
2019-03-09T01:58:02.765Z,14.25
2019-03-09T02:00:31.353Z,13.25
2019-03-09T02:02:59.792Z,12.60
2019-03-09T02:05:28.319Z,16.35
2019-03-09T02:07:56.778Z,14.35
2019-03-09T02:10:25.212Z,12.88
2019-03-09T02:12:54.516Z,17.57
2019-03-09T02:15:23.060Z,16.77
2019-03-09T02:17:51.720Z,16.30
2019-03-09T02:20:20.149Z,17.57
2019-03-09T02:22:48.665Z,13.58
2019-03-09T02:25:17.107Z,17.50
2019-03-09T02:27:45.728Z,14.98
2019-03-09T02:30:16.700Z,17.15
2019-03-09T02:32:45.222Z,14.85
2019-03-09T02:35:14.923Z,15.83
2019-03-09T02:37:43.401Z,14.93
2019-03-09T02:40:14.463Z,19.70
2019-03-09T02:42:43.123Z,17.65
2019-03-09T02:45:17.962Z,16.45
2019-03-09T02:47:46.409Z,15.03
2019-03-09T02:50:16.081Z,12.98
2019-03-09T02:52:45.145Z,11.00
2019-03-09T02:55:14.193Z,15.45
2019-03-09T02:57:42.626Z,15.10
2019-03-09T03:00:14.063Z,17.20
2019-03-09T03:02:52.772Z,15.60
2019-03-09T03:05:21.317Z,15.10
2019-03-09T03:07:51.066Z,14.00
2019-03-09T03:10:19.525Z,14.18
2019-03-09T03:12:47.978Z,11.40
2019-03-09T03:15:33.444Z,14.28
2019-03-09T03:18:02.299Z,15.38
2019-03-09T03:20:30.946Z,15.25
2019-03-09T03:22:59.351Z,15.90
2019-03-09T03:25:28.276Z,14.75
2019-03-09T03:27:56.727Z,15.63
2019-03-09T03:30:25.172Z,15.53
2019-03-09T03:32:55.610Z,18.92
2019-03-09T03:35:24.047Z,15.78
2019-03-09T03:37:52.561Z,16.77
2019-03-09T03:40:21.037Z,18.30
2019-03-09T03:42:49.490Z,17.95
2019-03-09T03:45:17.943Z,19.92
2019-03-09T03:47:46.441Z,20.60
2019-03-09T03:50:14.936Z,20.30
2019-03-09T03:52:43.369Z,19.17
2019-03-09T03:55:12.188Z,20.40
2019-03-09T03:57:40.984Z,20.02
2019-03-09T04:00:12.450Z,22.60
2019-03-09T04:02:40.915Z,17.67
2019-03-09T04:05:09.586Z,19.95
2019-03-09T04:07:38.653Z,20.15
2019-03-09T04:10:09.907Z,21.55
2019-03-09T04:12:38.339Z,23.55
2019-03-09T04:15:07.824Z,21.05
2019-03-09T04:17:36.328Z,20.48
2019-03-09T04:20:06.954Z,21.80
2019-03-09T04:22:35.385Z,21.65
2019-03-09T04:25:04.912Z,25.45
2019-03-09T04:27:33.506Z,20.32
2019-03-09T04:30:01.969Z,25.30
2019-03-09T04:32:30.665Z,21.02
2019-03-09T04:34:59.109Z,22.05
2019-03-09T04:37:27.631Z,22.40
2019-03-09T04:39:56.083Z,20.95
2019-03-09T04:42:24.523Z,23.83
2019-03-09T04:44:53.219Z,21.97
2019-03-09T04:47:22.025Z,20.95
2019-03-09T04:49:50.834Z,22.67
2019-03-09T04:52:19.293Z,21.05
2019-03-09T04:54:47.930Z,21.50
2019-03-09T04:57:16.365Z,21.80
2019-03-09T04:59:44.815Z,19.45
2019-03-09T05:02:13.290Z,17.17
2019-03-09T05:04:44.171Z,16.70
2019-03-09T05:07:15.253Z,17.40
2019-03-09T05:10:02.228Z,16.10
2019-03-09T05:12:32.843Z,13.55
2019-03-09T05:15:01.277Z,15.13
2019-03-09T05:17:29.754Z,16.10
2019-03-09T05:19:58.187Z,14.33
2019-03-09T05:22:26.633Z,13.35
2019-03-09T05:24:55.353Z,15.65
2019-03-09T05:27:23.794Z,13.55
2019-03-09T05:29:52.425Z,14.83
2019-03-09T05:32:20.853Z,12.05
2019-03-09T05:34:49.462Z,15.95
2019-03-09T05:37:17.917Z,10.85
2019-03-09T05:39:46.472Z,15.25
2019-03-09T05:42:14.890Z,10.78
2019-03-09T05:44:43.326Z,17.12
2019-03-09T05:47:11.808Z,10.63
2019-03-09T05:49:40.241Z,14.63
2019-03-09T05:52:23.988Z,10.88
2019-03-09T05:54:52.425Z,14.05
2019-03-09T05:57:20.866Z,17.05
2019-03-09T05:59:49.679Z,11.75
2019-03-09T06:02:18.246Z,15.25
2019-03-09T06:04:46.742Z,15.60
2019-03-09T06:07:15.295Z,13.08
2019-03-09T06:09:43.809Z,16.45
2019-03-09T06:12:12.242Z,12.90
2019-03-09T06:14:40.723Z,17.65
2019-03-09T06:17:09.410Z,16.73
2019-03-09T06:19:38.213Z,21.00
2019-03-09T06:22:06.722Z,14.25
2019-03-09T06:24:35.167Z,16.77
2019-03-09T06:27:03.616Z,20.43
2019-03-09T06:29:32.177Z,15.75
2019-03-09T06:32:32.586Z,18.98
2019-03-09T06:35:01.086Z,20.95
2019-03-09T06:37:31.582Z,17.57
2019-03-09T06:40:00.018Z,21.77
2019-03-09T06:42:31.949Z,20.60
2019-03-09T06:45:00.397Z,20.95
2019-03-09T06:47:29.086Z,26.30
2019-03-09T06:49:57.563Z,23.80
2019-03-09T06:52:26.090Z,20.55
2019-03-09T06:54:54.514Z,17.57
2019-03-09T06:57:22.988Z,25.37
2019-03-09T06:59:51.423Z,27.17
2019-03-09T07:02:20.254Z,17.15
2019-03-09T07:04:48.858Z,24.72
2019-03-09T07:07:17.341Z,28.87
2019-03-09T07:09:45.848Z,25.40
2019-03-09T07:12:14.321Z,25.80
2019-03-09T07:15:00.816Z,26.30
2019-03-09T07:17:29.297Z,22.98
2019-03-09T07:19:57.736Z,25.80
2019-03-09T07:22:26.583Z,25.85
2019-03-09T07:24:55.571Z,23.70
2019-03-09T07:27:24.169Z,35.92
2019-03-09T07:29:52.613Z,32.67
2019-03-09T07:32:21.074Z,38.85
2019-03-09T07:34:49.504Z,35.43
2019-03-09T07:37:17.945Z,37.80
2019-03-09T07:39:46.431Z,33.92
2019-03-09T07:42:14.851Z,31.87
2019-03-09T07:44:43.323Z,36.80
2019-03-09T07:47:12.424Z,38.80
2019-03-09T07:49:40.924Z,46.08
2019-03-09T07:52:31.497Z,45.58
2019-03-09T07:55:00.001Z,37.95
2019-03-09T07:57:28.432Z,40.30
2019-03-09T07:59:56.901Z,40.08
2019-03-09T08:02:25.344Z,40.33
2019-03-09T08:04:53.823Z,39.27
2019-03-09T08:07:22.337Z,38.55
2019-03-09T08:09:50.771Z,36.98
2019-03-09T08:12:19.503Z,35.03
2019-03-09T08:14:48.008Z,40.25
2019-03-09T08:17:16.524Z,36.25
2019-03-09T08:19:44.991Z,32.05
2019-03-09T08:22:13.798Z,35.03
2019-03-09T08:24:42.331Z,31.90
2019-03-09T08:27:10.776Z,40.70
2019-03-09T08:29:39.791Z,35.52
2019-03-09T08:32:08.237Z,30.88
2019-03-09T08:34:36.778Z,35.43
2019-03-09T08:37:05.283Z,30.50
2019-03-09T08:39:33.730Z,31.48
2019-03-09T08:42:02.181Z,28.98
2019-03-09T08:44:30.632Z,30.72
2019-03-09T08:46:59.062Z,24.23
2019-03-09T08:49:27.671Z,24.12
2019-03-09T08:51:56.228Z,24.40
2019-03-09T08:54:25.036Z,24.10
2019-03-09T08:56:53.492Z,29.05
2019-03-09T08:59:21.997Z,24.50
2019-03-09T09:01:50.681Z,27.67
2019-03-09T09:04:19.178Z,29.00
2019-03-09T09:06:47.650Z,22.98
2019-03-09T09:09:16.088Z,17.50
2019-03-09T09:11:44.638Z,20.52
2019-03-09T09:14:13.116Z,23.27
2019-03-09T09:16:41.798Z,30.80
2019-03-09T09:19:10.235Z,30.90
2019-03-09T09:21:38.839Z,28.52
2019-03-09T09:24:07.283Z,31.62
2019-03-09T09:26:35.789Z,28.20
2019-03-09T09:29:04.980Z,31.87
2019-03-09T09:31:33.423Z,27.75
2019-03-09T09:34:01.878Z,31.37
2019-03-09T09:36:30.342Z,27.65
2019-03-09T09:38:58.779Z,25.88
2019-03-09T09:41:27.618Z,26.33
2019-03-09T09:43:56.283Z,29.90
2019-03-09T09:46:24.714Z,24.32
2019-03-09T09:48:53.152Z,28.55
2019-03-09T09:51:21.746Z,23.20
2019-03-09T09:53:50.189Z,26.20
2019-03-09T09:56:18.650Z,21.33
2019-03-09T09:58:47.201Z,24.80
2019-03-09T10:01:15.929Z,27.30
2019-03-09T10:03:44.545Z,28.15
2019-03-09T10:06:13.290Z,25.57
2019-03-09T10:08:41.729Z,33.58
2019-03-09T10:11:10.172Z,24.30
2019-03-09T10:13:38.778Z,27.73
2019-03-09T10:16:07.221Z,20.77
2019-03-09T10:18:35.934Z,33.63
2019-03-09T10:21:04.706Z,25.25
2019-03-09T10:23:35.034Z,33.67
2019-03-09T10:26:05.059Z,25.32
2019-03-09T10:28:34.163Z,29.82
2019-03-09T10:31:03.026Z,25.43
2019-03-09T10:33:32.146Z,21.40
2019-03-09T10:36:00.673Z,26.90
2019-03-09T10:38:29.175Z,24.35
2019-03-09T10:40:57.625Z,29.20
2019-03-09T10:43:26.238Z,28.85
2019-03-09T10:45:55.079Z,24.50
2019-03-09T10:48:23.564Z,25.97
2019-03-09T10:50:52.051Z,29.42
2019-03-09T10:53:20.484Z,26.45
2019-03-09T10:55:48.924Z,28.32
2019-03-09T10:58:17.621Z,28.23
2019-03-09T11:00:46.232Z,21.93
2019-03-09T11:03:14.737Z,25.40
2019-03-09T11:05:43.775Z,25.75
2019-03-09T11:08:12.234Z,28.38
2019-03-09T11:10:40.700Z,25.60
2019-03-09T11:13:10.371Z,21.60
2019-03-09T11:15:38.813Z,26.82
2019-03-09T11:18:07.330Z,19.20
2019-03-09T11:20:35.791Z,26.50
2019-03-09T11:23:04.229Z,22.40
2019-03-09T11:25:32.765Z,24.37
2019-03-09T11:28:06.993Z,30.23
2019-03-09T11:30:35.563Z,27.48
2019-03-09T11:33:04.375Z,28.75
2019-03-09T11:35:33.470Z,24.07
2019-03-09T11:38:02.162Z,22.32
2019-03-09T11:40:30.890Z,19.85
2019-03-09T11:43:00.790Z,25.20
2019-03-09T11:45:30.946Z,21.97
2019-03-09T11:47:59.459Z,17.65
2019-03-09T11:50:27.928Z,25.52
2019-03-09T11:52:56.581Z,19.90
2019-03-09T11:55:25.275Z,12.70
2019-03-09T11:57:53.790Z,20.77
2019-03-09T12:00:24.914Z,18.60
2019-03-09T12:02:53.410Z,19.33
2019-03-09T12:05:22.030Z,21.52
2019-03-09T12:07:50.757Z,11.78
2019-03-09T12:10:19.287Z,16.42
2019-03-09T12:12:50.667Z,16.30
2019-03-09T12:15:19.380Z,17.60
2019-03-09T12:21:17.568Z,16.93
2019-03-09T12:23:46.056Z,20.10
2019-03-09T12:26:14.503Z,19.62
2019-03-09T12:28:42.990Z,19.00
2019-03-09T12:31:11.442Z,14.43
2019-03-09T12:33:39.914Z,18.95
2019-03-09T12:36:08.723Z,19.20
2019-03-09T12:38:37.207Z,20.37
2019-03-09T12:41:05.659Z,21.87
2019-03-09T12:43:34.177Z,14.87
2019-03-09T12:46:02.611Z,16.85
2019-03-09T12:48:31.071Z,18.05
2019-03-09T12:50:59.484Z,17.50
2019-03-09T12:53:27.956Z,22.50
2019-03-09T12:55:56.501Z,23.47
2019-03-09T12:58:24.951Z,20.15
2019-03-09T13:00:55.896Z,21.97
2019-03-09T13:03:24.337Z,21.95
2019-03-09T13:05:52.783Z,19.67
2019-03-09T13:08:23.448Z,21.45
2019-03-09T13:10:56.008Z,21.12
2019-03-09T13:13:24.566Z,27.75
2019-03-09T13:15:53.379Z,16.48
2019-03-09T13:18:21.878Z,23.87
2019-03-09T13:20:50.525Z,23.32
2019-03-09T13:23:19.575Z,18.80
2019-03-09T13:25:48.012Z,21.75
2019-03-09T13:28:16.464Z,19.87
2019-03-09T13:30:45.245Z,16.67
2019-03-09T13:33:13.699Z,26.73
2019-03-09T13:35:42.371Z,20.27
2019-03-09T13:38:10.931Z,21.70
2019-03-09T13:40:39.472Z,18.15
2019-03-09T13:43:07.979Z,20.37
2019-03-09T13:45:36.691Z,19.25
2019-03-09T13:48:05.130Z,18.00
2019-03-09T13:50:33.575Z,19.67
2019-03-09T13:53:02.287Z,18.25
2019-03-09T13:55:31.119Z,23.45
2019-03-09T13:57:59.568Z,17.32
2019-03-09T14:00:28.038Z,21.90
2019-03-09T14:02:56.468Z,21.93
2019-03-09T14:05:25.077Z,17.02
2019-03-09T14:07:53.635Z,23.32
2019-03-09T14:10:22.098Z,22.52
2019-03-09T14:12:51.000Z,19.87
2019-03-09T14:15:19.875Z,16.60
2019-03-09T14:17:48.319Z,21.80
2019-03-09T14:20:17.634Z,22.37
2019-03-09T14:22:46.319Z,17.17
2019-03-09T14:25:16.298Z,16.05
2019-03-09T14:27:44.801Z,20.15
2019-03-09T14:30:16.200Z,16.05
2019-03-09T14:32:44.631Z,15.30
2019-03-09T14:35:13.864Z,21.33
2019-03-09T14:37:42.320Z,16.60
2019-03-09T14:40:13.469Z,16.80
2019-03-09T14:42:42.209Z,20.10
2019-03-09T14:45:16.766Z,19.25
2019-03-09T14:47:45.563Z,17.20
2019-03-09T14:50:14.538Z,18.98
2019-03-09T14:52:43.547Z,20.60
2019-03-09T14:55:12.911Z,16.02
2019-03-09T14:57:41.598Z,19.35
2019-03-09T15:00:13.290Z,15.50
2019-03-09T15:02:41.920Z,17.95
2019-03-09T15:05:10.570Z,16.50
2019-03-09T15:07:39.521Z,23.02
2019-03-09T15:10:10.114Z,21.62
2019-03-09T15:12:38.527Z,24.20
2019-03-09T15:15:10.108Z,19.57
2019-03-09T15:17:38.554Z,20.08
2019-03-09T15:20:10.014Z,24.35
2019-03-09T15:22:38.907Z,19.98
2019-03-09T15:25:10.485Z,20.02
2019-03-09T15:27:38.931Z,17.35
2019-03-09T15:30:10.804Z,16.32
2019-03-09T15:32:39.339Z,16.45
2019-03-09T15:35:08.919Z,19.30
2019-03-09T15:37:37.405Z,18.48
2019-03-09T15:40:08.918Z,15.43
2019-03-09T15:42:37.651Z,14.45
2019-03-09T15:45:09.550Z,17.92
2019-03-09T15:47:38.046Z,16.97
2019-03-09T15:50:12.322Z,18.82
2019-03-09T15:52:41.099Z,20.27
2019-03-09T15:55:10.642Z,16.10
2019-03-09T15:57:39.615Z,12.60
2019-03-09T16:00:17.652Z,10.68
2019-03-09T16:02:46.291Z,11.78
2019-03-09T16:05:15.079Z,8.35
2019-03-09T16:07:44.117Z,11.88
2019-03-09T16:10:15.392Z,10.50
2019-03-09T16:12:43.817Z,9.00
2019-03-09T16:15:14.966Z,6.85
2019-03-09T16:17:43.653Z,6.27
2019-03-09T16:20:14.637Z,6.22
2019-03-09T16:22:44.023Z,5.97
2019-03-09T16:25:13.036Z,11.55
2019-03-09T16:27:41.808Z,8.10
2019-03-09T16:30:20.995Z,8.68
2019-03-09T16:32:51.111Z,9.80
2019-03-09T16:35:19.661Z,8.73
2019-03-09T16:37:49.323Z,9.25
2019-03-09T16:40:20.552Z,10.10
2019-03-09T16:42:55.616Z,8.60
2019-03-09T16:45:24.054Z,10.68
2019-03-09T16:47:52.578Z,7.53
2019-03-09T16:50:21.260Z,10.65
2019-03-09T16:52:49.761Z,11.70
2019-03-09T16:55:18.216Z,7.62
2019-03-09T16:57:46.738Z,9.65
2019-03-09T17:00:17.758Z,9.73
2019-03-09T17:02:46.415Z,10.50
2019-03-09T17:05:30.677Z,10.30
2019-03-09T17:08:04.968Z,7.17
2019-03-09T17:10:33.574Z,10.20
2019-03-09T17:13:02.117Z,13.20
2019-03-09T17:15:30.548Z,9.60
2019-03-09T17:18:02.625Z,9.60
2019-03-09T17:22:59.148Z,10.95
2019-03-09T17:25:27.580Z,13.22
2019-03-09T17:27:56.382Z,10.80
2019-03-09T17:30:25.082Z,15.85
2019-03-09T17:32:53.731Z,15.18
2019-03-09T17:35:22.446Z,12.35
2019-03-09T17:37:51.111Z,18.62
2019-03-09T17:40:20.609Z,11.45
2019-03-09T17:42:49.174Z,16.05
2019-03-09T17:45:22.715Z,12.28
2019-03-09T17:47:51.324Z,11.55
2019-03-09T17:50:20.033Z,5.65
2019-03-09T17:52:50.496Z,7.87
2019-03-09T17:55:19.773Z,4.25
2019-03-09T17:57:48.240Z,5.42
2019-03-09T18:00:41.835Z,6.65
2019-03-09T18:03:01.568Z,7.40
2019-03-09T18:05:30.006Z,8.78
2019-03-09T18:07:58.711Z,5.80
2019-03-09T18:10:42.141Z,6.67
2019-03-09T18:13:10.585Z,5.95
2019-03-09T18:15:39.268Z,4.83
2019-03-09T18:18:07.845Z,6.72
2019-03-09T18:20:36.460Z,6.25
2019-03-09T18:23:05.649Z,7.50
2019-03-09T18:25:34.159Z,4.92
2019-03-09T18:28:02.573Z,3.25
2019-03-09T18:30:32.157Z,4.17
2019-03-09T18:33:00.802Z,4.53
2019-03-09T18:35:29.240Z,4.28
2019-03-09T18:37:57.687Z,4.55
2019-03-09T18:40:26.621Z,6.60
2019-03-09T18:42:55.076Z,7.03
2019-03-09T18:45:24.582Z,8.85
2019-03-09T18:47:53.066Z,10.28
2019-03-09T18:50:21.546Z,4.58
2019-03-09T18:52:50.090Z,9.78
2019-03-09T18:55:18.756Z,7.08
2019-03-09T18:57:53.271Z,14.38
2019-03-09T19:00:22.561Z,6.20
2019-03-09T19:02:51.438Z,17.05
2019-03-09T19:05:20.719Z,16.23
2019-03-09T19:07:49.326Z,16.35
2019-03-09T19:10:20.538Z,11.55
2019-03-09T19:12:49.412Z,15.13
2019-03-09T19:15:18.958Z,9.15
2019-03-09T19:17:47.856Z,15.50
2019-03-09T19:20:21.777Z,21.35
2019-03-09T19:22:50.311Z,14.95
2019-03-09T19:25:18.774Z,12.47
2019-03-09T19:27:47.248Z,15.18
2019-03-09T19:30:20.868Z,22.70
2019-03-09T19:32:59.558Z,18.15
2019-03-09T19:35:20.273Z,21.23
2019-03-09T19:37:48.732Z,16.73
2019-03-09T19:40:19.403Z,19.90
2019-03-09T19:42:47.838Z,22.98
2019-03-09T19:45:17.939Z,19.55
2019-03-09T19:47:46.547Z,24.15
2019-03-09T19:50:26.334Z,18.65
2019-03-09T19:52:55.111Z,21.87
2019-03-09T19:55:23.561Z,19.70
2019-03-09T19:57:52.012Z,20.92
2019-03-09T20:00:22.052Z,23.50
2019-03-09T20:02:50.829Z,30.08
2019-03-09T20:05:19.588Z,26.90
2019-03-09T20:07:48.035Z,22.73
2019-03-09T20:10:19.610Z,33.60
2019-03-09T20:12:48.690Z,16.87
2019-03-09T20:15:18.777Z,22.30
2019-03-09T20:17:47.258Z,23.40
2019-03-09T20:20:17.674Z,25.57
2019-03-09T20:22:46.380Z,25.72
2019-03-09T20:25:15.007Z,24.95
2019-03-09T20:27:43.526Z,19.87
2019-03-09T20:30:19.206Z,24.85
2019-03-09T20:32:47.858Z,31.33
2019-03-09T20:35:16.297Z,17.62
2019-03-09T20:37:50.643Z,27.90
2019-03-09T20:40:19.200Z,25.75
2019-03-09T20:42:47.730Z,25.55
2019-03-09T20:45:17.747Z,22.55
2019-03-09T20:47:46.215Z,28.67
2019-03-09T20:50:22.347Z,22.93
2019-03-09T20:52:50.959Z,25.77
2019-03-09T20:55:19.393Z,18.48
2019-03-09T20:57:49.373Z,27.52
2019-03-09T21:00:19.732Z,27.45
2019-03-09T21:02:48.385Z,26.05
2019-03-09T21:05:16.833Z,21.17
2019-03-09T21:07:45.303Z,25.10
2019-03-09T21:10:19.365Z,22.35
2019-03-09T21:13:02.460Z,20.20
2019-03-09T21:15:31.003Z,22.80
2019-03-09T21:17:59.454Z,25.27
2019-03-09T21:20:28.698Z,27.00
2019-03-09T21:22:57.217Z,21.20
2019-03-09T21:25:26.180Z,21.62
2019-03-09T21:27:54.985Z,22.65
2019-03-09T21:30:23.596Z,31.77
2019-03-09T21:32:52.105Z,25.62
2019-03-09T21:35:20.577Z,31.00
2019-03-09T21:37:49.098Z,17.85
2019-03-09T21:40:17.774Z,24.70
2019-03-09T21:42:46.263Z,24.00
2019-03-09T21:45:15.323Z,22.50
2019-03-09T21:47:43.836Z,26.20
2019-03-09T21:50:17.671Z,19.62
2019-03-09T21:52:46.106Z,17.48
2019-03-09T21:55:15.795Z,24.02
2019-03-09T21:57:44.253Z,17.42
2019-03-09T22:00:20.072Z,17.57
2019-03-09T22:02:50.409Z,15.63
2019-03-09T22:05:19.127Z,20.55
2019-03-09T22:07:47.716Z,21.12
2019-03-09T22:10:17.107Z,32.73
2019-03-09T22:12:46.447Z,23.60
2019-03-09T22:15:16.232Z,24.27
2019-03-09T22:17:52.162Z,19.15
2019-03-09T22:20:20.890Z,24.95
2019-03-09T22:22:49.500Z,25.23
2019-03-09T22:25:18.439Z,27.07
2019-03-09T22:27:46.890Z,24.02
2019-03-09T22:30:17.140Z,15.53
2019-03-09T22:32:47.395Z,20.32
2019-03-09T22:35:18.979Z,24.45
2019-03-09T22:38:45.450Z,22.75
2019-03-09T22:48:23.802Z,20.08
2019-03-09T22:50:56.109Z,17.60
2019-03-09T22:53:31.288Z,17.52
2019-03-09T22:56:20.954Z,22.82
2019-03-09T22:58:49.525Z,18.07
2019-03-09T23:01:21.554Z,15.93
2019-03-09T23:06:24.194Z,16.85
2019-03-09T23:08:52.641Z,16.82
2019-03-09T23:11:21.697Z,15.70
2019-03-09T23:13:50.351Z,23.80
2019-03-09T23:16:20.211Z,18.25
2019-03-09T23:18:48.748Z,19.02
2019-03-09T23:21:17.183Z,17.42
2019-03-09T23:23:45.620Z,25.57
2019-03-09T23:26:14.459Z,20.65
2019-03-09T23:28:47.486Z,21.48
2019-03-09T23:31:17.084Z,23.12
2019-03-09T23:34:13.503Z,21.85
2019-03-09T23:36:43.401Z,16.17
2019-03-09T23:39:14.622Z,14.13
2019-03-09T23:41:43.894Z,20.57
2019-03-09T23:44:12.378Z,15.80
2019-03-09T23:46:56.153Z,17.80
2019-03-09T23:50:01.485Z,19.40
2019-03-09T23:52:30.048Z,17.60
2019-03-09T23:54:58.561Z,23.27
2019-03-09T23:57:27.023Z,23.05
